createdAt,value
2022-10-15T00:01:22.271Z,16.30
2022-10-15T00:03:51.061Z,16.67
2022-10-15T00:06:20.487Z,16.88
2022-10-15T00:08:47.895Z,16.40
2022-10-15T00:11:26.461Z,16.60
2022-10-15T00:13:58.877Z,15.50
2022-10-15T00:18:57.267Z,16.25
2022-10-15T00:21:23.921Z,16.63
2022-10-15T00:23:50.605Z,17.05
2022-10-15T00:26:22.762Z,16.45
2022-10-15T00:28:51.859Z,15.80
2022-10-15T00:31:21.135Z,16.42
2022-10-15T00:33:50.042Z,15.57
2022-10-15T00:36:37.197Z,16.25
2022-10-15T00:39:06.229Z,16.38
2022-10-15T00:41:42.935Z,15.50
2022-10-15T00:44:21.936Z,15.75
2022-10-15T00:46:52.192Z,14.68
2022-10-15T00:49:28.395Z,14.75
2022-10-15T00:51:59.383Z,15.68
2022-10-15T00:54:28.100Z,14.63
2022-10-15T00:56:55.589Z,14.95
2022-10-15T00:59:26.866Z,14.60
2022-10-15T01:01:54.966Z,13.48
2022-10-15T01:04:24.297Z,14.00
2022-10-15T01:06:50.916Z,14.32
2022-10-15T01:09:17.675Z,14.57
2022-10-15T01:11:54.897Z,14.07
2022-10-15T01:14:44.583Z,15.40
2022-10-15T01:17:20.393Z,14.98
2022-10-15T01:19:50.115Z,14.13
2022-10-15T01:22:42.107Z,14.52
2022-10-15T01:25:53.943Z,14.68
2022-10-15T01:28:45.258Z,15.02
2022-10-15T01:31:25.922Z,14.43
2022-10-15T01:34:03.086Z,14.88
2022-10-15T01:36:38.252Z,15.38
2022-10-15T01:39:16.333Z,13.93
2022-10-15T01:41:55.302Z,14.77
2022-10-15T01:44:33.328Z,14.45
2022-10-15T01:47:21.854Z,14.35
2022-10-15T01:49:53.107Z,15.25
2022-10-15T01:52:26.277Z,14.15
2022-10-15T01:54:53.848Z,14.77
2022-10-15T01:57:22.572Z,15.20
2022-10-15T01:59:50.903Z,15.05
2022-10-15T02:02:17.627Z,14.38
2022-10-15T02:04:44.196Z,14.27
2022-10-15T02:07:28.324Z,14.45
2022-10-15T02:10:08.220Z,14.80
2022-10-15T02:13:05.332Z,14.63
2022-10-15T02:15:44.280Z,14.38
2022-10-15T02:18:28.920Z,15.02
2022-10-15T02:21:03.492Z,15.10
2022-10-15T02:23:48.286Z,14.60
2022-10-15T02:26:16.378Z,15.07
2022-10-15T02:28:50.407Z,14.15
2022-10-15T02:31:19.365Z,15.30
2022-10-15T02:33:47.680Z,14.18
2022-10-15T02:36:16.209Z,14.90
2022-10-15T02:38:45.893Z,13.95
2022-10-15T02:41:13.621Z,14.32
2022-10-15T02:43:41.233Z,13.73
2022-10-15T02:46:10.144Z,14.38
2022-10-15T02:48:36.914Z,12.88
2022-10-15T02:51:04.799Z,13.15
2022-10-15T02:53:31.417Z,12.98
2022-10-15T02:55:58.104Z,12.77
2022-10-15T02:58:25.112Z,12.45
2022-10-15T03:00:52.416Z,11.93
2022-10-15T03:03:19.172Z,12.30
2022-10-15T03:05:46.137Z,12.10
2022-10-15T03:08:12.965Z,12.15
2022-10-15T03:10:39.809Z,12.95
2022-10-15T03:13:07.976Z,12.32
2022-10-15T03:15:36.455Z,11.80
2022-10-15T03:18:03.450Z,13.23
2022-10-15T03:20:30.227Z,12.15
2022-10-15T03:22:56.821Z,12.80
2022-10-15T03:25:23.749Z,12.32
2022-10-15T03:27:52.975Z,12.95
2022-10-15T03:30:20.131Z,12.13
2022-10-15T03:32:48.225Z,12.60
2022-10-15T03:35:15.151Z,12.27
2022-10-15T03:37:41.770Z,12.80
2022-10-15T03:40:13.455Z,12.60
2022-10-15T03:42:41.443Z,12.88
2022-10-15T03:45:08.843Z,11.75
2022-10-15T03:47:35.541Z,12.57
2022-10-15T03:50:02.204Z,12.88
2022-10-15T03:52:28.920Z,12.25
2022-10-15T03:54:55.555Z,12.70
2022-10-15T03:57:22.128Z,12.95
2022-10-15T03:59:48.835Z,11.80
2022-10-15T04:02:15.780Z,11.77
2022-10-15T04:04:42.465Z,11.77
2022-10-15T04:07:10.294Z,12.15
2022-10-15T04:09:36.923Z,12.20
2022-10-15T04:12:03.871Z,12.20
2022-10-15T04:14:30.759Z,11.65
2022-10-15T04:16:59.143Z,12.70
2022-10-15T04:19:25.866Z,12.82
2022-10-15T04:21:52.564Z,13.10
2022-10-15T04:24:19.223Z,12.32
2022-10-15T04:26:45.871Z,12.27
2022-10-15T04:29:12.441Z,9.02
2022-10-15T04:31:39.214Z,12.38
2022-10-15T04:34:05.835Z,11.93
2022-10-15T04:36:32.830Z,11.43
2022-10-15T04:38:59.657Z,10.82
2022-10-15T04:41:26.442Z,10.80
2022-10-15T04:43:53.063Z,10.38
2022-10-15T04:46:23.074Z,11.30
2022-10-15T04:48:49.998Z,11.07
2022-10-15T04:51:20.715Z,10.27
2022-10-15T04:53:47.492Z,10.00
2022-10-15T04:56:18.106Z,9.95
2022-10-15T04:58:46.642Z,11.00
2022-10-15T05:01:16.493Z,9.32
2022-10-15T05:03:45.280Z,10.35
2022-10-15T05:06:18.013Z,9.90
2022-10-15T05:08:45.419Z,9.38
2022-10-15T05:11:30.841Z,9.38
2022-10-15T05:13:58.327Z,8.70
2022-10-15T05:16:28.120Z,9.23
2022-10-15T05:19:03.641Z,9.43
2022-10-15T05:21:33.381Z,8.35
2022-10-15T05:24:00.394Z,8.75
2022-10-15T05:26:29.106Z,9.05
2022-10-15T05:28:58.107Z,8.27
2022-10-15T05:31:27.884Z,9.30
2022-10-15T05:33:56.470Z,10.38
2022-10-15T05:36:24.450Z,10.35
2022-10-15T05:38:54.777Z,11.07
2022-10-15T05:41:21.740Z,11.32
2022-10-15T05:43:53.482Z,10.45
2022-10-15T05:46:22.530Z,10.80
2022-10-15T05:48:50.827Z,10.82
2022-10-15T05:51:18.274Z,8.23
2022-10-15T05:53:46.307Z,10.05
2022-10-15T05:56:14.673Z,9.35
2022-10-15T05:58:41.615Z,8.73
2022-10-15T06:01:10.707Z,8.48
2022-10-15T06:03:38.064Z,8.88
2022-10-15T06:06:05.116Z,9.00
2022-10-15T06:08:32.150Z,8.73
2022-10-15T06:11:06.817Z,9.48
2022-10-15T06:13:38.358Z,9.25
2022-10-15T06:16:05.592Z,9.57
2022-10-15T06:18:32.893Z,10.25
2022-10-15T06:20:59.744Z,9.63
2022-10-15T06:23:26.540Z,9.93
2022-10-15T06:25:53.371Z,10.70
2022-10-15T06:28:21.314Z,9.15
2022-10-15T06:30:48.113Z,10.40
2022-10-15T06:33:16.793Z,12.10
2022-10-15T06:35:43.618Z,11.88
2022-10-15T06:38:10.613Z,11.43
2022-10-15T06:40:37.809Z,12.88
2022-10-15T06:43:08.010Z,12.77
2022-10-15T06:45:39.273Z,13.10
2022-10-15T06:48:06.882Z,14.20
2022-10-15T06:50:35.679Z,13.90
2022-10-15T06:53:02.718Z,15.38
2022-10-15T06:55:29.517Z,14.80
2022-10-15T06:57:57.223Z,15.40
2022-10-15T07:00:24.854Z,14.70
2022-10-15T07:02:53.394Z,14.82
2022-10-15T07:05:20.526Z,15.20
2022-10-15T07:07:53.906Z,14.73
2022-10-15T07:10:21.508Z,15.50
2022-10-15T07:12:48.188Z,14.40
2022-10-15T07:15:15.370Z,12.32
2022-10-15T07:17:51.549Z,14.73
2022-10-15T07:20:21.996Z,14.60
2022-10-15T07:22:52.174Z,16.00
2022-10-15T07:25:19.006Z,16.13
2022-10-15T07:27:45.660Z,17.10
2022-10-15T07:30:13.445Z,10.25
2022-10-15T07:32:40.403Z,18.90
2022-10-15T07:35:07.342Z,18.02
2022-10-15T07:37:34.180Z,17.88
2022-10-15T07:40:02.092Z,17.95
2022-10-15T07:42:28.694Z,21.23
2022-10-15T07:44:56.764Z,23.45
2022-10-15T07:47:24.918Z,25.77
2022-10-15T07:49:56.143Z,22.75
2022-10-15T07:52:26.342Z,16.52
2022-10-15T07:54:53.290Z,24.77
2022-10-15T07:57:21.891Z,24.20
2022-10-15T07:59:48.616Z,28.35
2022-10-15T08:02:17.180Z,15.32
2022-10-15T08:04:44.984Z,24.05
2022-10-15T08:07:13.077Z,30.73
2022-10-15T08:09:39.950Z,25.20
2022-10-15T08:12:07.231Z,12.52
2022-10-15T08:14:35.115Z,25.17
2022-10-15T08:17:03.066Z,27.00
2022-10-15T08:19:29.878Z,25.88
2022-10-15T08:21:57.221Z,28.40
2022-10-15T08:24:24.520Z,31.33
2022-10-15T08:26:51.586Z,14.82
2022-10-15T08:29:18.275Z,31.42
2022-10-15T08:31:45.564Z,31.00
2022-10-15T08:34:15.383Z,18.15
2022-10-15T08:36:42.983Z,20.17
2022-10-15T08:39:11.505Z,33.00
2022-10-15T08:41:43.128Z,32.53
2022-10-15T08:44:27.605Z,16.63
2022-10-15T08:47:09.915Z,27.42
2022-10-15T08:49:48.978Z,36.20
2022-10-15T08:52:43.593Z,35.38
2022-10-15T08:55:19.112Z,25.85
2022-10-15T08:57:51.954Z,28.52
2022-10-15T09:00:18.881Z,34.05
2022-10-15T09:02:45.826Z,19.98
2022-10-15T09:05:36.221Z,22.38
2022-10-15T09:08:42.129Z,23.90
2022-10-15T09:11:24.156Z,33.92
2022-10-15T09:13:51.502Z,23.83
2022-10-15T09:16:35.627Z,32.38
2022-10-15T09:19:10.604Z,32.63
2022-10-15T09:21:37.907Z,21.88
2022-10-15T09:24:05.519Z,31.02
2022-10-15T09:27:10.032Z,31.55
2022-10-15T09:30:04.439Z,22.23
2022-10-15T09:32:43.290Z,19.95
2022-10-15T09:35:15.725Z,31.42
2022-10-15T09:37:53.211Z,26.25
2022-10-15T09:40:29.289Z,19.23
2022-10-15T09:43:01.855Z,22.38
2022-10-15T09:45:29.245Z,19.25
2022-10-15T09:48:01.139Z,20.52
2022-10-15T09:50:44.499Z,22.90
2022-10-15T09:53:52.425Z,25.95
2022-10-15T09:56:23.156Z,21.30
2022-10-15T09:58:58.389Z,22.30
2022-10-15T10:01:27.041Z,29.88
2022-10-15T10:04:08.966Z,28.38
2022-10-15T10:06:48.711Z,19.77
2022-10-15T10:09:54.829Z,16.73
2022-10-15T10:12:51.718Z,23.05
2022-10-15T10:15:35.775Z,28.83
2022-10-15T10:18:06.802Z,27.08
2022-10-15T10:20:34.680Z,24.95
2022-10-15T10:23:24.172Z,22.15
2022-10-15T10:25:51.069Z,24.05
2022-10-15T10:28:31.673Z,15.18
2022-10-15T10:30:58.514Z,15.00
2022-10-15T10:33:36.255Z,14.48
2022-10-15T10:36:05.179Z,22.40
2022-10-15T10:38:33.252Z,16.65
2022-10-15T10:41:06.926Z,16.42
2022-10-15T10:43:39.082Z,18.95
2022-10-15T10:46:18.074Z,14.65
2022-10-15T10:48:47.247Z,22.17
2022-10-15T10:51:18.436Z,20.13
2022-10-15T10:53:59.150Z,16.00
2022-10-15T10:56:33.728Z,24.33
2022-10-15T10:59:13.761Z,14.45
2022-10-15T11:01:40.475Z,12.13
2022-10-15T11:04:19.740Z,21.42
2022-10-15T11:06:58.475Z,18.65
2022-10-15T11:10:01.755Z,21.05
2022-10-15T11:12:34.198Z,19.92
2022-10-15T11:15:16.466Z,15.60
2022-10-15T11:20:58.812Z,21.45
2022-10-15T11:23:49.488Z,15.95
2022-10-15T11:26:29.730Z,14.52
2022-10-15T11:29:24.141Z,14.40
2022-10-15T11:32:22.163Z,13.57
2022-10-15T11:35:20.214Z,17.00
2022-10-15T11:38:32.642Z,18.90
2022-10-15T11:41:24.458Z,13.05
2022-10-15T11:44:14.616Z,11.10
2022-10-15T11:47:18.926Z,15.80
2022-10-15T11:50:10.617Z,14.60
2022-10-15T11:52:56.615Z,12.37
2022-10-15T11:55:44.301Z,13.32
2022-10-15T11:58:22.126Z,11.95
2022-10-15T12:00:58.953Z,13.20
2022-10-15T12:03:29.078Z,12.18
2022-10-15T12:06:05.197Z,10.95
2022-10-15T12:08:36.005Z,10.40
2022-10-15T12:11:15.527Z,15.27
2022-10-15T12:13:54.456Z,10.68
2022-10-15T12:16:39.539Z,12.50
2022-10-15T12:19:24.055Z,10.40
2022-10-15T12:21:56.558Z,9.55
2022-10-15T12:24:38.596Z,14.57
2022-10-15T12:27:20.731Z,10.85
2022-10-15T12:30:02.804Z,10.30
2022-10-15T12:32:40.690Z,11.68
2022-10-15T12:37:50.049Z,11.90
2022-10-15T12:40:19.641Z,10.50
2022-10-15T12:42:51.276Z,10.35
2022-10-15T12:45:24.085Z,10.85
2022-10-15T12:47:54.212Z,9.88
2022-10-15T12:50:26.579Z,10.38
2022-10-15T12:52:57.882Z,9.57
2022-10-15T12:55:30.816Z,10.00
2022-10-15T12:58:01.994Z,9.55
2022-10-15T13:00:31.345Z,9.65
2022-10-15T13:03:10.994Z,8.07
2022-10-15T13:05:37.898Z,8.88
2022-10-15T13:08:14.272Z,9.68
2022-10-15T13:10:47.953Z,8.70
2022-10-15T13:13:28.706Z,8.27
2022-10-15T13:16:01.318Z,8.55
2022-10-15T13:18:30.739Z,10.00
2022-10-15T13:20:58.417Z,9.57
2022-10-15T13:23:31.678Z,7.93
2022-10-15T13:26:13.822Z,8.43
2022-10-15T13:28:42.811Z,8.30
2022-10-15T13:31:17.953Z,8.07
2022-10-15T13:33:48.325Z,8.05
2022-10-15T13:36:26.702Z,7.88
2022-10-15T13:39:26.003Z,8.13
2022-10-15T13:42:13.822Z,8.80
2022-10-15T13:44:41.215Z,8.40
2022-10-15T13:47:31.216Z,7.47
2022-10-15T13:50:30.469Z,6.85
2022-10-15T13:53:32.499Z,7.07
2022-10-15T13:56:03.586Z,7.03
2022-10-15T13:58:37.825Z,7.28
2022-10-15T14:01:15.547Z,7.10
2022-10-15T14:03:52.488Z,8.32
2022-10-15T14:06:27.924Z,7.75
2022-10-15T14:09:19.985Z,9.13
2022-10-15T14:11:47.268Z,7.40
2022-10-15T14:14:34.640Z,7.15
2022-10-15T14:17:07.826Z,8.82
2022-10-15T14:19:37.838Z,6.80
2022-10-15T14:22:05.431Z,6.88
2022-10-15T14:24:36.209Z,8.05
2022-10-15T14:27:14.392Z,6.75
2022-10-15T14:29:51.887Z,6.65
2022-10-15T14:32:18.477Z,8.68
2022-10-15T14:34:45.094Z,9.77
2022-10-15T14:37:36.476Z,6.97
2022-10-15T14:40:12.027Z,7.85
2022-10-15T14:42:46.216Z,9.35
2022-10-15T14:45:19.016Z,7.20
2022-10-15T14:47:57.599Z,7.80
2022-10-15T14:50:36.325Z,6.85
2022-10-15T14:53:08.970Z,6.72
2022-10-15T14:55:52.387Z,8.52
2022-10-15T14:58:21.605Z,8.05
2022-10-15T15:00:54.987Z,9.10
2022-10-15T15:03:29.107Z,7.00
2022-10-15T15:05:57.129Z,8.00
2022-10-15T15:08:25.742Z,9.52
2022-10-15T15:10:56.309Z,6.72
2022-10-15T15:13:30.651Z,6.95
2022-10-15T15:15:57.492Z,7.30
2022-10-15T15:18:24.480Z,7.03
2022-10-15T15:20:51.546Z,6.90
2022-10-15T15:23:27.586Z,8.35
2022-10-15T15:25:55.487Z,7.28
2022-10-15T15:28:27.930Z,6.10
2022-10-15T15:31:00.286Z,7.18
2022-10-15T15:33:28.393Z,7.15
2022-10-15T15:36:02.491Z,6.90
2022-10-15T15:38:32.597Z,6.50
2022-10-15T15:41:10.558Z,6.20
2022-10-15T15:43:37.382Z,10.30
2022-10-15T15:46:04.090Z,9.82
2022-10-15T15:48:30.945Z,6.45
2022-10-15T15:51:02.133Z,6.75
2022-10-15T15:53:28.724Z,6.60
2022-10-15T15:55:55.681Z,6.68
2022-10-15T15:58:22.328Z,6.65
2022-10-15T16:00:48.945Z,7.85
2022-10-15T16:03:15.736Z,7.10
2022-10-15T16:05:42.897Z,7.72
2022-10-15T16:08:11.353Z,6.25
2022-10-15T16:10:38.086Z,6.78
2022-10-15T16:13:05.520Z,7.05
2022-10-15T16:15:33.347Z,6.88
2022-10-15T16:18:00.271Z,7.80
2022-10-15T16:20:28.498Z,7.18
2022-10-15T16:22:55.764Z,6.75
2022-10-15T16:25:24.214Z,7.68
2022-10-15T16:27:56.887Z,8.07
2022-10-15T16:30:24.621Z,6.43
2022-10-15T16:32:51.326Z,7.03
2022-10-15T16:35:18.212Z,7.00
2022-10-15T16:37:45.706Z,7.30
2022-10-15T16:40:13.965Z,7.32
2022-10-15T16:42:40.770Z,6.95
2022-10-15T16:45:07.966Z,7.18
2022-10-15T16:47:36.669Z,7.13
2022-10-15T16:50:04.093Z,7.90
2022-10-15T16:52:30.759Z,6.95
2022-10-15T16:54:57.775Z,7.82
2022-10-15T16:57:26.409Z,6.93
2022-10-15T16:59:56.257Z,7.68
2022-10-15T17:02:23.238Z,7.18
2022-10-15T17:04:50.427Z,6.72
2022-10-15T17:07:17.548Z,7.45
2022-10-15T17:09:45.322Z,7.95
2022-10-15T17:12:12.248Z,6.88
2022-10-15T17:14:40.804Z,7.57
2022-10-15T17:17:08.206Z,7.07
2022-10-15T17:19:38.294Z,6.72
2022-10-15T17:22:05.628Z,7.13
2022-10-15T17:24:32.967Z,7.13
2022-10-15T17:27:01.634Z,7.20
2022-10-15T17:29:32.445Z,6.50
2022-10-15T17:32:02.326Z,7.03
2022-10-15T17:34:35.349Z,9.05
2022-10-15T17:37:02.673Z,8.80
2022-10-15T17:39:29.501Z,6.80
2022-10-15T17:41:56.713Z,7.18
2022-10-15T17:44:23.699Z,9.93
2022-10-15T17:46:53.057Z,6.38
2022-10-15T17:49:20.060Z,8.30
2022-10-15T17:51:49.241Z,6.43
2022-10-15T17:54:27.335Z,6.80
2022-10-15T17:56:57.153Z,6.70
2022-10-15T17:59:24.609Z,6.95
2022-10-15T18:02:17.516Z,7.15
2022-10-15T18:04:47.466Z,7.05
2022-10-15T18:07:17.681Z,13.63
2022-10-15T18:09:45.779Z,7.93
2022-10-15T18:12:12.796Z,14.15
2022-10-15T18:14:43.270Z,13.57
2022-10-15T18:17:12.665Z,14.07
2022-10-15T18:19:39.397Z,9.23
2022-10-15T18:22:06.262Z,7.80
2022-10-15T18:24:33.283Z,9.15
2022-10-15T18:27:00.052Z,10.85
2022-10-15T18:29:26.818Z,10.93
2022-10-15T18:31:58.030Z,15.88
2022-10-15T18:34:25.183Z,13.23
2022-10-15T18:36:53.089Z,8.55
2022-10-15T18:39:20.035Z,9.18
2022-10-15T18:41:46.695Z,14.57
2022-10-15T18:44:16.981Z,17.15
2022-10-15T18:46:45.733Z,15.90
2022-10-15T18:49:13.630Z,17.92
2022-10-15T18:51:40.804Z,9.95
2022-10-15T18:54:08.810Z,9.52
2022-10-15T18:56:36.633Z,18.50
2022-10-15T18:59:03.384Z,19.02
2022-10-15T19:01:42.105Z,15.23
2022-10-15T19:04:12.679Z,9.73
2022-10-15T19:06:42.900Z,9.93
2022-10-15T19:09:15.728Z,19.58
2022-10-15T19:11:49.143Z,20.13
2022-10-15T19:14:16.238Z,20.15
2022-10-15T19:16:43.712Z,12.00
2022-10-15T19:19:13.026Z,11.85
2022-10-15T19:21:39.744Z,11.90
2022-10-15T19:24:06.622Z,21.60
2022-10-15T19:26:34.250Z,17.23
2022-10-15T19:29:02.206Z,19.00
2022-10-15T19:31:37.606Z,18.17
2022-10-15T19:34:05.028Z,12.55
2022-10-15T19:36:42.972Z,20.20
2022-10-15T19:39:14.581Z,12.95
2022-10-15T19:41:43.090Z,20.38
2022-10-15T19:44:11.079Z,19.88
2022-10-15T19:46:38.190Z,17.83
2022-10-15T19:49:06.350Z,16.58
2022-10-15T19:51:33.724Z,15.23
2022-10-15T19:54:03.010Z,13.35
2022-10-15T19:56:30.138Z,14.40
2022-10-15T19:58:58.841Z,13.20
2022-10-15T20:01:26.708Z,16.45
2022-10-15T20:03:58.225Z,15.27
2022-10-15T20:06:27.278Z,14.23
2022-10-15T20:08:54.265Z,15.50
2022-10-15T20:11:21.169Z,13.80
2022-10-15T20:13:47.947Z,14.57
2022-10-15T20:16:15.891Z,13.82
2022-10-15T20:18:44.093Z,13.57
2022-10-15T20:21:13.432Z,13.35
2022-10-15T20:23:41.903Z,13.93
2022-10-15T20:26:10.832Z,12.63
2022-10-15T20:28:43.244Z,12.35
2022-10-15T20:31:16.504Z,11.77
2022-10-15T20:33:45.042Z,11.40
2022-10-15T20:36:21.187Z,11.65
2022-10-15T20:38:50.816Z,11.50
2022-10-15T20:41:18.191Z,12.13
2022-10-15T20:43:45.955Z,12.00
2022-10-15T20:46:21.166Z,10.68
2022-10-15T20:48:48.494Z,11.18
2022-10-15T20:51:17.833Z,11.50
2022-10-15T20:53:46.057Z,10.65
2022-10-15T20:56:13.060Z,11.15
2022-10-15T20:58:39.978Z,11.32
2022-10-15T21:01:07.937Z,11.07
2022-10-15T21:03:34.791Z,10.55
2022-10-15T21:06:03.072Z,10.70
2022-10-15T21:08:29.761Z,10.25
2022-10-15T21:11:08.003Z,10.57
2022-10-15T21:13:35.062Z,11.38
2022-10-15T21:16:05.874Z,10.50
2022-10-15T21:18:33.775Z,10.80
2022-10-15T21:21:05.269Z,11.00
2022-10-15T21:23:33.235Z,10.07
2022-10-15T21:26:15.614Z,11.40
2022-10-15T21:31:14.036Z,10.13
2022-10-15T21:33:41.495Z,9.30
2022-10-15T21:36:11.282Z,10.45
2022-10-15T21:38:38.945Z,11.05
2022-10-15T21:41:05.955Z,11.07
2022-10-15T21:43:32.801Z,9.27
2022-10-15T21:46:11.005Z,8.25
2022-10-15T21:48:38.804Z,8.27
2022-10-15T21:51:20.735Z,8.13
2022-10-15T21:53:47.625Z,7.88
2022-10-15T21:56:14.774Z,7.80
2022-10-15T21:58:43.010Z,8.45
2022-10-15T22:01:27.183Z,8.32
2022-10-15T22:04:02.409Z,7.82
2022-10-15T22:06:29.927Z,8.15
2022-10-15T22:08:56.769Z,7.82
2022-10-15T22:11:32.503Z,7.20
2022-10-15T22:14:01.771Z,7.43
2022-10-15T22:16:29.208Z,7.57
2022-10-15T22:18:56.914Z,7.35
2022-10-15T22:21:27.066Z,6.95
2022-10-15T22:23:56.103Z,6.45
2022-10-15T22:26:26.204Z,6.70
2022-10-15T22:28:55.015Z,7.18
2022-10-15T22:31:21.728Z,6.53
2022-10-15T22:33:48.996Z,6.57
2022-10-15T22:36:24.588Z,6.28
2022-10-15T22:38:57.287Z,7.28
2022-10-15T22:41:24.467Z,6.88
2022-10-15T22:43:51.379Z,6.50
2022-10-15T22:46:18.059Z,6.10
2022-10-15T22:48:45.021Z,6.85
2022-10-15T22:51:13.449Z,6.85
2022-10-15T22:53:40.802Z,7.00
2022-10-15T22:56:11.907Z,5.88
2022-10-15T22:58:38.925Z,6.28
2022-10-15T23:01:08.336Z,6.40
2022-10-15T23:03:35.240Z,6.50
2022-10-15T23:06:02.043Z,6.65
2022-10-15T23:08:28.722Z,6.70
2022-10-15T23:10:55.504Z,5.95
2022-10-15T23:13:22.198Z,6.13
2022-10-15T23:15:48.860Z,6.00
2022-10-15T23:18:15.536Z,6.30
2022-10-15T23:20:42.123Z,5.80
2022-10-15T23:23:09.121Z,5.85
2022-10-15T23:25:39.231Z,7.03
2022-10-15T23:28:06.949Z,7.18
2022-10-15T23:30:33.792Z,6.25
2022-10-15T23:33:02.532Z,6.30
2022-10-15T23:35:29.177Z,6.80
2022-10-15T23:37:55.857Z,6.47
2022-10-15T23:40:22.477Z,7.07
2022-10-15T23:42:49.058Z,6.47
2022-10-15T23:45:15.761Z,6.55
2022-10-15T23:47:42.598Z,5.82
2022-10-15T23:50:09.577Z,6.20
2022-10-15T23:52:36.863Z,6.05
2022-10-15T23:55:03.636Z,6.65
2022-10-15T23:57:30.256Z,6.15
2022-10-15T23:59:57.778Z,5.93
